Time;durP1;ratioP1;P1;durP2;ratioP2;P2;SDS_P1;SDS_P2;PMS_P1;PMS_P2;Temp;Humidity;BMP_temperature;BMP_pressure;BME280_temperature;BME280_humidity;BME280_pressure;Samples;Min_cycle;Max_cycle;Signal;HPM_P1;HPM_P2
2022/05/16 00:02:17;;;;;;;9.50;3.97;;;;;;;17.68;55.55;101215.00;5116533;28;20108;-63
2022/05/16 00:04:45;;;;;;;10.93;3.72;;;;;;;17.62;55.34;101204.63;5116166;28;20036;-63
2022/05/16 00:07:11;;;;;;;11.88;4.38;;;;;;;17.62;56.04;101215.22;5116351;28;20031;-63
2022/05/16 00:09:36;;;;;;;13.82;4.00;;;;;;;17.61;55.04;101213.50;5116306;28;20024;-63
2022/05/16 00:12:03;;;;;;;12.45;3.92;;;;;;;17.52;56.01;101211.16;5116011;28;20038;-63
2022/05/16 00:14:29;;;;;;;8.40;3.90;;;;;;;17.57;56.16;101209.22;5108530;28;20038;-63
2022/05/16 00:16:54;;;;;;;10.20;4.13;;;;;;;17.52;55.61;101205.00;5111605;28;20417;-63
2022/05/16 00:19:19;;;;;;;11.90;3.85;;;;;;;17.44;55.97;101196.50;5116065;28;20027;-63
2022/05/16 00:21:45;;;;;;;11.68;4.32;;;;;;;17.49;56.35;101199.84;5115911;28;20027;-63
2022/05/16 00:24:10;;;;;;;8.73;4.22;;;;;;;17.52;55.33;101195.28;5115959;28;20031;-63
2022/05/16 00:26:35;;;;;;;11.90;4.45;;;;;;;17.44;56.13;101192.06;5116285;28;20027;-63
2022/05/16 00:29:01;;;;;;;10.93;4.40;;;;;;;17.43;55.23;101190.34;5116041;28;20488;-63
2022/05/16 00:31:26;;;;;;;10.50;4.35;;;;;;;17.32;56.74;101188.06;5115662;28;20055;-63
2022/05/16 00:33:52;;;;;;;12.30;4.50;;;;;;;17.35;55.97;101189.75;5115688;28;20422;-63
2022/05/16 00:36:17;;;;;;;9.88;3.97;;;;;;;17.31;56.48;101188.16;5115820;28;20032;-63
2022/05/16 00:38:42;;;;;;;10.48;4.55;;;;;;;17.32;56.56;101188.06;5115949;28;20036;-63
2022/05/16 00:41:08;;;;;;;9.83;4.37;;;;;;;17.25;56.45;101191.88;5115313;28;20038;-63
2022/05/16 00:43:55;;;;;;;9.70;4.00;;;;;;;17.16;55.93;101188.66;5116137;28;20277;-64
2022/05/16 00:46:22;;;;;;;10.48;3.83;;;;;;;17.12;56.80;101195.00;5115566;28;20023;-63
2022/05/16 00:48:47;;;;;;;10.75;4.60;;;;;;;17.13;57.85;101187.03;5115603;28;20440;-63
2022/05/16 00:51:51;;;;;;;8.25;4.10;;;;;;;17.19;56.24;101197.38;5115698;28;20060;-63
2022/05/16 00:54:30;;;;;;;14.38;4.57;;;;;;;17.09;57.42;101195.97;5114484;28;20023;-64
2022/05/16 00:57:00;;;;;;;13.25;4.55;;;;;;;17.03;57.57;101185.59;5115843;28;20118;-63
2022/05/16 00:59:34;;;;;;;8.77;4.25;;;;;;;17.03;57.43;101186.47;5115311;28;20057;-63
2022/05/16 01:04:49;;;;;;;11.82;4.40;;;;;;;16.88;58.48;101171.13;5115368;28;20197;-63
2022/05/16 01:07:25;;;;;;;14.85;4.53;;;;;;;16.88;58.82;101178.19;5115178;28;20430;-63
2022/05/16 01:09:51;;;;;;;10.18;4.43;;;;;;;16.91;58.70;101175.44;5115564;28;20371;-63
2022/05/16 01:12:16;;;;;;;8.95;4.10;;;;;;;16.83;59.26;101172.19;5115352;28;20035;-63
2022/05/16 01:14:54;;;;;;;11.45;4.45;;;;;;;16.89;57.98;101182.56;5115377;28;20035;-63
2022/05/16 01:17:20;;;;;;;11.48;4.68;;;;;;;16.85;59.18;101176.50;5115489;28;20102;-63
2022/05/16 01:19:46;;;;;;;9.52;4.07;;;;;;;16.87;58.97;101179.09;5115209;28;20402;-63
2022/05/16 01:22:16;;;;;;;13.13;4.85;;;;;;;16.86;59.29;101182.66;5114887;28;20031;-63
2022/05/16 01:24:42;;;;;;;12.20;4.43;;;;;;;16.86;58.75;101182.66;5115373;28;20036;-63
2022/05/16 01:27:08;;;;;;;9.45;4.78;;;;;;;16.77;58.70;101189.13;5115055;28;20066;-63
2022/05/16 01:29:33;;;;;;;11.00;4.72;;;;;;;16.76;58.75;101192.69;5115001;28;20376;-63
2022/05/16 01:31:58;;;;;;;9.30;4.93;;;;;;;16.72;59.32;101185.78;5115367;28;20052;-63
2022/05/16 01:34:23;;;;;;;12.07;4.70;;;;;;;16.73;59.21;101181.34;5115221;28;20118;-63
2022/05/16 01:36:49;;;;;;;10.20;4.65;;;;;;;16.75;59.64;101175.09;5115240;28;20277;-63
2022/05/16 01:39:14;;;;;;;8.65;4.70;;;;;;;16.68;59.63;101181.50;5115114;28;20358;-63
2022/05/16 01:41:39;;;;;;;10.52;4.40;;;;;;;16.70;59.49;101177.91;5114694;28;20138;-63
2022/05/16 01:44:04;;;;;;;10.98;5.10;;;;;;;16.55;59.42;101157.25;5114806;28;20043;-63
2022/05/16 01:46:33;;;;;;;12.05;5.13;;;;;;;16.77;59.10;101173.28;5097023;28;20042;-63
2022/05/16 01:48:59;;;;;;;12.23;5.03;;;;;;;16.82;59.09;101166.03;5114542;28;20035;-63
2022/05/16 01:51:24;;;;;;;12.55;4.78;;;;;;;16.70;59.12;101147.97;5115138;28;20027;-63
2022/05/16 01:53:50;;;;;;;13.77;4.65;;;;;;;16.81;59.07;101163.44;5114906;28;20431;-63
2022/05/16 01:56:16;;;;;;;8.52;4.60;;;;;;;16.82;59.47;101166.03;5115095;28;20039;-63
2022/05/16 01:58:42;;;;;;;8.55;4.82;;;;;;;16.83;59.32;101162.47;5115113;28;20145;-62
2022/05/16 02:01:08;;;;;;;9.80;4.53;;;;;;;16.90;59.07;101148.16;5114865;28;20122;-63
2022/05/16 02:03:38;;;;;;;9.15;4.30;;;;;;;16.86;59.32;101149.16;5115062;28;20473;-63
2022/05/16 02:06:03;;;;;;;12.55;5.30;;;;;;;16.90;58.86;101150.78;5117061;28;20452;-63
2022/05/16 02:08:29;;;;;;;11.55;4.82;;;;;;;16.89;59.23;101148.19;5118718;28;20098;-63
2022/05/16 02:10:54;;;;;;;12.50;4.90;;;;;;;16.85;59.27;101144.78;5118343;28;20118;-63
2022/05/16 02:13:19;;;;;;;10.53;5.23;;;;;;;16.90;59.12;101139.34;5118799;28;20051;-63
2022/05/16 02:15:45;;;;;;;8.75;4.43;;;;;;;16.83;59.50;101140.47;5118498;28;20276;-63
2022/05/16 02:18:11;;;;;;;11.82;4.90;;;;;;;16.81;59.77;101132.59;5118062;28;20370;-63
2022/05/16 02:20:37;;;;;;;13.57;5.18;;;;;;;16.82;59.65;101134.31;5118231;28;20032;-63
2022/05/16 02:25:53;;;;;;;11.32;5.05;;;;;;;16.81;59.86;101126.44;5118266;28;20042;-63
2022/05/16 02:28:20;;;;;;;10.90;4.78;;;;;;;16.80;60.30;101128.22;5118557;28;20028;-64
2022/05/16 02:30:46;;;;;;;9.82;4.63;;;;;;;16.85;60.08;101138.63;5117937;28;20085;-62
2022/05/16 02:33:13;;;;;;;12.27;5.20;;;;;;;16.82;60.17;101130.81;5118884;28;20023;-63
2022/05/16 02:35:39;;;;;;;10.85;5.00;;;;;;;16.82;60.08;101120.25;5118057;28;20027;-62
2022/05/16 02:38:06;;;;;;;11.25;5.13;;;;;;;16.81;60.08;101122.00;5117859;28;20324;-63
2022/05/16 02:40:33;;;;;;;8.65;4.70;;;;;;;16.76;60.64;101123.13;5118089;28;20119;-63
2022/05/16 02:42:59;;;;;;;10.43;4.78;;;;;;;16.76;60.54;101117.81;5117846;28;20028;-63
2022/05/16 02:45:25;;;;;;;9.27;4.53;;;;;;;16.78;60.63;101119.50;5117763;28;20092;-63
2022/05/16 02:47:51;;;;;;;9.93;4.82;;;;;;;16.69;60.61;101107.47;5117963;28;20139;-63
2022/05/16 02:50:18;;;;;;;9.98;4.50;;;;;;;16.68;60.98;101108.38;5117802;28;20023;-63
2022/05/16 02:52:43;;;;;;;9.32;4.65;;;;;;;16.70;60.94;101105.69;5117925;28;20326;-63
2022/05/16 02:55:09;;;;;;;9.07;4.60;;;;;;;16.65;60.93;101097.91;5117459;28;20035;-63
2022/05/16 02:57:34;;;;;;;9.10;4.43;;;;;;;16.57;61.02;101086.72;5117558;28;20447;-63
2022/05/16 03:00:00;;;;;;;11.55;4.72;;;;;;;16.60;61.32;101104.25;5117689;28;20076;-64
2022/05/16 03:02:26;;;;;;;11.85;4.95;;;;;;;16.59;61.38;101099.88;5117402;28;20403;-63
2022/05/16 03:04:52;;;;;;;8.63;4.50;;;;;;;16.54;61.58;101080.66;5117750;28;20031;-63
2022/05/16 03:07:17;;;;;;;7.80;4.50;;;;;;;16.50;61.73;101092.25;5117257;28;20023;-63
2022/05/16 03:09:42;;;;;;;14.77;5.05;;;;;;;16.45;61.66;101087.09;5117401;28;20411;-63
2022/05/16 03:12:08;;;;;;;8.00;4.57;;;;;;;16.48;61.82;101081.72;5117317;28;20038;-62
2022/05/16 03:14:35;;;;;;;11.68;5.03;;;;;;;16.46;62.28;101086.19;5117979;28;20403;-63
2022/05/16 03:17:00;;;;;;;7.47;4.57;;;;;;;16.35;62.31;101078.66;5116330;28;20032;-63
2022/05/16 03:19:25;;;;;;;12.80;4.60;;;;;;;16.49;61.80;101085.22;5117298;28;20027;-63
2022/05/16 03:21:51;;;;;;;10.18;4.60;;;;;;;16.43;62.36;101091.59;5113328;28;20114;-62
2022/05/16 03:24:16;;;;;;;10.53;4.93;;;;;;;16.44;62.20;101095.13;5117143;28;20430;-62
2022/05/16 03:26:41;;;;;;;8.00;4.22;;;;;;;16.40;62.62;101098.75;5117084;28;20273;-63
2022/05/16 03:29:07;;;;;;;12.65;4.80;;;;;;;16.39;62.40;101097.91;5116959;28;20043;-62
2022/05/16 03:31:34;;;;;;;8.45;4.65;;;;;;;16.33;62.78;101098.97;5116934;28;20052;-63
2022/05/16 03:33:59;;;;;;;10.25;4.35;;;;;;;16.40;62.85;101090.84;5116941;28;20418;-63
2022/05/16 03:36:24;;;;;;;8.85;4.72;;;;;;;16.31;63.08;101103.41;5117025;28;20035;-63
2022/05/16 03:41:33;;;;;;;7.95;4.57;;;;;;;16.16;64.01;101098.66;5116852;28;20047;-63
2022/05/16 03:43:59;;;;;;;10.77;4.75;;;;;;;16.17;64.23;101099.50;5116736;28;20027;-63
2022/05/16 03:46:25;;;;;;;7.47;4.70;;;;;;;16.08;64.30;101092.75;5117022;28;20040;-63
2022/05/16 03:48:51;;;;;;;11.65;4.70;;;;;;;16.07;64.00;101096.31;5116625;28;20039;-63
2022/05/16 03:51:16;;;;;;;10.57;4.80;;;;;;;16.07;64.02;101091.03;5116414;28;20043;-63
2022/05/16 03:53:48;;;;;;;8.20;4.47;;;;;;;16.11;64.39;101095.28;5116869;28;20031;-63
2022/05/16 03:56:15;;;;;;;11.10;4.80;;;;;;;16.10;64.21;101092.72;5116897;28;20080;-63
2022/05/16 03:58:41;;;;;;;9.55;4.65;;;;;;;16.06;64.58;101091.09;5116525;28;20038;-63
2022/05/16 04:01:06;;;;;;;11.18;5.00;;;;;;;16.05;64.76;101087.56;5116437;28;20032;-63
2022/05/16 04:03:32;;;;;;;9.40;4.60;;;;;;;16.06;64.98;101093.72;5116271;28;20028;-63
2022/05/16 04:05:57;;;;;;;8.95;4.40;;;;;;;16.02;65.61;101080.63;5116127;28;20027;-63
2022/05/16 04:08:22;;;;;;;8.30;5.07;;;;;;;16.04;65.42;101085.84;5116390;28;20027;-63
2022/05/16 04:10:47;;;;;;;9.43;4.77;;;;;;;16.01;64.93;101088.59;5116433;28;20035;-63
2022/05/16 04:13:13;;;;;;;11.07;5.10;;;;;;;16.01;66.53;101091.22;5116367;28;20264;-63
2022/05/16 04:15:38;;;;;;;11.73;4.80;;;;;;;16.01;65.66;101097.38;5116090;28;20416;-63
2022/05/16 04:18:04;;;;;;;12.33;5.27;;;;;;;16.05;65.96;101094.63;5116038;28;20059;-63
2022/05/16 04:20:29;;;;;;;9.50;4.65;;;;;;;16.12;66.57;101107.56;5115595;28;20762;-62
2022/05/16 04:22:54;;;;;;;11.70;4.80;;;;;;;16.12;66.29;101098.78;5116000;28;20039;-63
2022/05/16 04:25:20;;;;;;;10.13;4.67;;;;;;;16.13;66.10;101111.06;5116005;28;20453;-64
2022/05/16 04:27:46;;;;;;;9.43;5.15;;;;;;;16.12;65.62;101104.94;5115939;28;20640;-62
2022/05/16 04:30:12;;;;;;;10.45;4.82;;;;;;;16.10;65.89;101098.88;5115875;28;20027;-63
2022/05/16 04:32:38;;;;;;;10.50;5.43;;;;;;;16.12;66.13;101101.44;5115664;28;20358;-63
2022/05/16 04:35:04;;;;;;;9.90;4.85;;;;;;;16.14;66.97;101095.19;5115718;28;20035;-63
2022/05/16 04:37:32;;;;;;;8.75;5.53;;;;;;;16.18;65.59;101106.53;5115656;28;20031;-62
2022/05/16 04:39:59;;;;;;;9.05;5.20;;;;;;;16.24;65.83;101101.91;5115637;28;20099;-63
2022/05/16 04:42:41;;;;;;;9.82;4.88;;;;;;;16.29;65.31;101104.38;5115937;28;20062;-63
2022/05/16 04:45:07;;;;;;;10.30;5.05;;;;;;;16.36;66.02;101104.16;5115692;28;20464;-63
2022/05/16 04:47:32;;;;;;;10.57;5.13;;;;;;;16.37;66.05;101107.66;5115698;28;20067;-63
2022/05/16 04:49:58;;;;;;;10.02;5.35;;;;;;;16.49;64.22;101101.09;5115285;28;20024;-63
2022/05/16 04:52:23;;;;;;;8.33;5.27;;;;;;;16.61;63.57;101098.03;5115720;28;20035;-63
2022/05/16 04:54:48;;;;;;;10.25;5.68;;;;;;;16.57;63.63;101084.06;5115340;28;20719;-63
2022/05/16 04:57:14;;;;;;;9.95;5.72;;;;;;;16.78;63.63;101103.66;5115823;28;20032;-62
2022/05/16 04:59:40;;;;;;;9.50;5.80;;;;;;;16.88;62.95;101106.81;5115736;28;20031;-63
2022/05/16 05:02:05;;;;;;;9.35;5.88;;;;;;;16.91;62.87;101094.38;5105647;28;20040;-63
2022/05/16 05:04:31;;;;;;;11.13;5.43;;;;;;;17.11;62.39;101111.31;5094224;28;20108;-56
2022/05/16 05:06:57;;;;;;;9.60;5.63;;;;;;;17.21;61.99;101105.59;5095169;28;20064;-65
2022/05/16 05:09:22;;;;;;;8.43;5.13;;;;;;;17.31;61.00;101100.84;5095047;28;20127;-64
2022/05/16 05:14:33;;;;;;;9.82;5.80;;;;;;;17.48;61.08;101105.53;5095128;28;20051;-64
2022/05/16 05:17:08;;;;;;;10.52;5.47;;;;;;;17.52;61.16;101100.03;5094879;28;20031;-64
2022/05/16 05:19:35;;;;;;;6.50;4.53;;;;;;;17.63;60.23;101108.44;5094880;28;20105;-64
2022/05/16 05:22:00;;;;;;;10.10;4.82;;;;;;;17.79;60.06;101108.75;5096731;28;20089;-65
2022/05/16 05:24:26;;;;;;;13.20;4.80;;;;;;;17.87;59.37;101117.22;5114831;28;20405;-64
2022/05/16 05:26:52;;;;;;;7.40;4.68;;;;;;;17.96;58.94;101116.03;5115172;28;20036;-64
2022/05/16 05:29:18;;;;;;;8.27;4.20;;;;;;;18.01;59.15;101103.44;5115207;28;20046;-64
2022/05/16 05:31:44;;;;;;;9.10;4.50;;;;;;;18.11;58.47;101107.47;5115086;28;20366;-64
2022/05/16 05:34:11;;;;;;;11.32;4.25;;;;;;;18.20;57.68;101093.81;5115002;28;20036;-65
2022/05/16 05:36:38;;;;;;;7.75;4.47;;;;;;;18.29;58.12;101101.41;5115061;28;20027;-63
2022/05/16 05:39:04;;;;;;;9.35;4.60;;;;;;;18.38;57.53;101108.09;5115196;28;20450;-63
2022/05/16 05:41:29;;;;;;;6.65;4.40;;;;;;;18.46;57.70;101105.16;5117943;28;20039;-63
2022/05/16 05:43:55;;;;;;;10.27;4.57;;;;;;;18.50;57.18;101112.06;5118643;28;20416;-63
2022/05/16 05:46:21;;;;;;;7.10;4.18;;;;;;;18.58;57.00;101125.84;5118861;28;20037;-63
2022/05/16 05:48:46;;;;;;;8.57;4.50;;;;;;;18.58;57.44;101125.84;5118958;28;20110;-63
2022/05/16 05:51:13;;;;;;;8.43;4.60;;;;;;;18.57;57.37;101126.75;5118709;28;20028;-63
2022/05/16 05:53:41;;;;;;;11.35;4.28;;;;;;;18.56;57.21;101122.38;5118606;28;20035;-65
2022/05/16 05:56:07;;;;;;;13.35;4.85;;;;;;;18.57;56.82;101134.72;5118677;28;20081;-63
2022/05/16 05:58:33;;;;;;;8.48;4.60;;;;;;;18.57;58.10;101129.41;5118519;28;20028;-63
2022/05/16 06:00:59;;;;;;;9.98;4.70;;;;;;;18.54;57.49;101141.00;5118949;28;20035;-64
2022/05/16 06:03:25;;;;;;;9.52;4.80;;;;;;;18.51;58.08;101141.16;5100408;28;20047;-63
2022/05/16 06:05:50;;;;;;;11.55;4.72;;;;;;;18.45;57.69;101128.13;5098347;28;20032;-62
2022/05/16 06:08:15;;;;;;;12.57;4.70;;;;;;;18.48;57.78;101135.97;5098157;28;20024;-64
2022/05/16 06:10:41;;;;;;;13.02;4.32;;;;;;;18.50;57.98;101136.78;5097745;28;20266;-61
2022/05/16 06:13:06;;;;;;;10.27;5.13;;;;;;;18.54;57.61;101143.66;5097910;28;20431;-64
2022/05/16 06:15:32;;;;;;;10.43;4.47;;;;;;;18.68;57.92;101144.00;5097644;28;20053;-62
2022/05/16 06:17:57;;;;;;;13.18;4.32;;;;;;;18.85;57.42;101145.94;5097910;28;20049;-64
2022/05/16 06:20:22;;;;;;;11.35;4.97;;;;;;;18.96;57.70;101145.44;5097868;28;20059;-63
2022/05/16 06:22:47;;;;;;;8.13;4.10;;;;;;;19.04;57.04;101149.50;5111207;28;20404;-64
2022/05/16 06:25:31;;;;;;;10.40;3.90;;;;;;;19.16;56.84;101153.41;5117978;28;20035;-61
2022/05/16 06:28:01;;;;;;;7.85;4.00;;;;;;;19.18;57.16;101154.19;5117960;28;20278;-59
2022/05/16 06:30:27;;;;;;;8.13;3.80;;;;;;;19.24;57.04;101159.22;5118004;28;20055;-63
2022/05/16 06:32:52;;;;;;;10.25;3.72;;;;;;;19.26;57.02;101157.38;5118005;28;20451;-63
2022/05/16 06:35:19;;;;;;;10.27;3.90;;;;;;;19.24;56.75;101163.66;5117937;28;20046;-63
2022/05/16 06:37:44;;;;;;;9.27;3.97;;;;;;;19.19;56.96;101157.72;5117943;28;20035;-64
2022/05/16 06:40:12;;;;;;;11.02;3.97;;;;;;;19.20;57.51;101164.75;5117883;28;20051;-64
2022/05/16 06:42:38;;;;;;;12.90;3.78;;;;;;;19.20;57.81;101173.56;5117534;28;20118;-63
2022/05/16 06:45:06;;;;;;;8.90;3.60;;;;;;;19.24;57.08;101167.19;5117846;28;20511;-63
2022/05/16 06:47:31;;;;;;;8.98;4.30;;;;;;;19.26;57.53;101164.47;5118039;28;20032;-63
2022/05/16 06:49:56;;;;;;;9.95;4.03;;;;;;;19.31;57.88;101167.78;5117857;28;20039;-63
2022/05/16 06:52:24;;;;;;;9.17;4.50;;;;;;;19.43;57.50;101169.88;5116333;28;20376;-65
2022/05/16 06:54:49;;;;;;;9.95;4.50;;;;;;;19.47;57.60;101158.19;5117578;28;20369;-64
2022/05/16 06:57:15;;;;;;;11.75;4.35;;;;;;;19.57;57.39;101166.66;5117233;28;20067;-63
2022/05/16 06:59:40;;;;;;;9.18;4.07;;;;;;;19.59;57.25;101172.75;5117297;28;20038;-64
2022/05/16 07:02:06;;;;;;;7.38;4.05;;;;;;;19.61;57.18;101169.09;5117334;28;20027;-63
2022/05/16 07:04:32;;;;;;;7.75;3.70;;;;;;;19.65;57.95;101181.28;5117360;28;20050;-64
2022/05/16 07:06:57;;;;;;;6.75;3.65;;;;;;;19.68;58.21;101175.00;5117266;28;20116;-64
2022/05/16 07:09:23;;;;;;;8.15;3.90;;;;;;;19.69;57.86;101172.25;5117120;28;20063;-63
2022/05/16 07:11:48;;;;;;;7.55;3.58;;;;;;;19.76;58.01;101175.47;5117136;28;20028;-63
2022/05/16 07:14:14;;;;;;;11.10;3.45;;;;;;;19.90;57.84;101182.84;5117030;28;20399;-64
2022/05/16 07:16:39;;;;;;;8.73;3.58;;;;;;;19.92;57.27;101173.84;5117071;28;20031;-63
2022/05/16 07:19:04;;;;;;;9.80;3.20;;;;;;;20.17;57.96;101184.19;5116936;28;20035;-63
2022/05/16 07:21:29;;;;;;;7.20;3.70;;;;;;;20.28;56.85;101167.69;5098848;28;20294;-63
2022/05/16 07:23:54;;;;;;;10.93;4.13;;;;;;;20.56;56.74;101189.41;5116474;28;20279;-64
2022/05/16 07:29:04;;;;;;;7.43;3.85;;;;;;;20.92;56.06;101186.69;5115544;28;20773;-63
2022/05/16 07:31:29;;;;;;;9.45;3.90;;;;;;;21.02;55.48;101179.94;5116660;28;20073;-64
2022/05/16 07:33:54;;;;;;;9.95;3.25;;;;;;;21.14;55.29;101179.31;5116524;28;20032;-63
2022/05/16 07:36:20;;;;;;;9.50;3.33;;;;;;;21.28;55.49;101188.44;5116648;28;20083;-64
2022/05/16 07:38:45;;;;;;;6.43;3.40;;;;;;;21.39;55.14;101180.72;5116342;28;20417;-63
2022/05/16 07:41:10;;;;;;;13.00;3.53;;;;;;;21.49;55.52;101173.97;5116262;28;20027;-63
2022/05/16 07:43:36;;;;;;;6.20;3.00;;;;;;;21.60;54.62;101186.72;5116040;28;20354;-64
2022/05/16 07:46:02;;;;;;;7.10;3.20;;;;;;;21.66;54.73;101186.38;5116299;28;20023;-63
2022/05/16 07:48:27;;;;;;;5.70;3.15;;;;;;;21.70;54.95;101194.13;5116346;28;20349;-64
2022/05/16 07:50:53;;;;;;;8.03;3.07;;;;;;;21.78;54.87;101197.25;5115727;28;20435;-64
2022/05/16 07:53:19;;;;;;;5.18;3.30;;;;;;;21.79;54.82;101198.97;5116217;28;20292;-63
2022/05/16 07:55:49;;;;;;;7.85;3.45;;;;;;;21.77;54.72;101198.19;5113423;28;20176;-63
2022/05/16 07:58:15;;;;;;;9.90;3.10;;;;;;;21.84;55.00;101204.88;5116000;28;20160;-63
2022/05/16 08:00:41;;;;;;;8.65;2.97;;;;;;;21.86;54.77;101208.34;5116078;28;20039;-64
2022/05/16 08:03:12;;;;;;;8.10;3.63;;;;;;;21.83;55.85;101203.16;5115809;28;20031;-63
2022/05/16 08:05:38;;;;;;;6.45;2.90;;;;;;;21.77;55.68;101206.19;5116009;28;20031;-64
2022/05/16 08:10:47;;;;;;;8.27;3.65;;;;;;;21.62;55.85;101207.00;5116059;28;20121;-63
2022/05/16 08:13:13;;;;;;;5.83;2.90;;;;;;;21.59;56.81;101206.31;5116288;28;20044;-63
2022/05/16 08:15:40;;;;;;;6.18;3.13;;;;;;;21.58;56.67;101215.25;5115852;28;20284;-63
2022/05/16 08:18:06;;;;;;;8.10;3.13;;;;;;;21.53;57.06;101210.16;5115743;28;20027;-64
2022/05/16 08:20:34;;;;;;;6.78;3.20;;;;;;;21.59;57.54;101207.16;5115918;28;20035;-64
2022/05/16 08:22:59;;;;;;;8.60;3.40;;;;;;;21.62;56.97;101217.66;5115446;28;20407;-64
2022/05/16 08:25:25;;;;;;;9.02;3.60;;;;;;;21.67;57.23;101220.91;5115578;28;20039;-64
2022/05/16 08:27:51;;;;;;;8.18;3.03;;;;;;;21.79;57.13;101214.94;5115698;28;20032;-63
2022/05/16 08:30:18;;;;;;;7.45;2.90;;;;;;;21.95;56.92;101219.44;5115652;28;20038;-63
2022/05/16 08:32:44;;;;;;;10.15;3.55;;;;;;;22.05;55.96;101218.88;5116080;28;20047;-63
2022/05/16 08:35:11;;;;;;;6.53;2.72;;;;;;;22.22;54.88;101217.94;5115493;28;20034;-63
2022/05/16 08:40:23;;;;;;;8.60;2.80;;;;;;;22.38;54.19;101213.47;5115767;28;20116;-63
2022/05/16 08:43:16;;;;;;;10.43;2.92;;;;;;;22.40;54.66;101200.03;5115183;28;20366;-63
2022/05/16 08:45:50;;;;;;;10.20;3.25;;;;;;;22.65;53.89;101215.53;5105193;28;20031;-63
2022/05/16 08:48:34;;;;;;;5.95;2.83;;;;;;;22.75;53.31;101212.22;5115321;28;20032;-63
2022/05/16 08:51:13;;;;;;;8.85;2.90;;;;;;;22.83;53.22;101209.16;5115283;28;20060;-63
2022/05/16 08:53:46;;;;;;;3.88;2.50;;;;;;;22.96;53.18;101217.28;5115040;28;20457;-63
2022/05/16 08:56:22;;;;;;;5.30;2.55;;;;;;;23.09;52.54;101215.59;5115617;28;20080;-63
2022/05/16 08:59:00;;;;;;;6.38;2.67;;;;;;;23.37;52.12;101217.50;5109008;28;20062;-62
2022/05/16 09:01:31;;;;;;;6.05;2.70;;;;;;;23.86;50.77;101207.31;5095027;28;20077;-64
2022/05/16 09:04:02;;;;;;;5.68;2.50;;;;;;;25.21;47.14;101201.06;5095117;28;20032;-65
2022/05/16 09:06:49;;;;;;;4.60;2.30;;;;;;;26.61;45.05;101200.88;5094778;28;20035;-64
2022/05/16 09:09:18;;;;;;;5.97;2.65;;;;;;;27.28;41.13;101196.59;5077271;28;20387;-64
2022/05/16 09:12:43;;;;;;;4.00;2.28;;;;;;;28.07;40.53;101197.50;5094773;28;20088;-63
2022/05/16 09:15:09;;;;;;;6.18;2.50;;;;;;;27.59;40.38;101197.78;4994049;28;20039;-64
2022/05/16 09:18:24;;;;;;;7.45;2.58;;;;;;;27.05;41.86;101205.56;4997460;28;20409;-63
2022/05/16 09:21:05;;;;;;;6.85;2.70;;;;;;;27.04;42.39;101215.47;4977645;28;20125;-64
2022/05/16 09:23:37;;;;;;;;;;;;;;;27.13;42.96;101205.00;4997643;28;20034;-64
2022/05/16 09:26:12;;;;;;;4.87;2.40;;;;;;;26.70;43.21;101203.72;5060477;28;19919;-64
2022/05/16 09:28:45;;;;;;;4.68;2.30;;;;;;;26.43;43.10;101208.47;5098358;28;20274;-63
2022/05/16 09:31:26;;;;;;;6.38;2.50;;;;;;;26.24;44.18;101202.69;5097758;28;20463;-63
2022/05/16 09:33:54;;;;;;;7.43;2.53;;;;;;;26.08;44.18;101207.47;5098130;28;20020;-64
2022/05/16 09:36:25;;;;;;;4.72;2.60;;;;;;;26.09;45.79;101218.09;5098497;28;20039;-64
2022/05/16 09:38:51;;;;;;;6.30;2.92;;;;;;;25.98;44.39;101215.31;5098654;28;20038;-65
2022/05/16 09:41:54;;;;;;;7.05;2.67;;;;;;;26.02;45.85;101223.03;5098457;28;20024;-64
2022/05/16 09:44:27;;;;;;;6.20;2.60;;;;;;;26.07;45.08;101221.84;5046896;28;20043;-62
2022/05/16 09:47:30;;;;;;;6.38;2.67;;;;;;;26.19;44.36;101221.81;5097909;28;20347;-62
2022/05/16 09:50:30;;;;;;;4.65;2.70;;;;;;;26.23;44.61;101227.81;5098354;28;20024;-63
2022/05/16 09:53:13;;;;;;;5.22;2.72;;;;;;;26.15;45.38;101233.72;5098334;28;20047;-62
2022/05/16 09:55:58;;;;;;;5.30;3.03;;;;;;;26.21;44.25;101237.81;5098223;28;20421;-62
2022/05/16 09:58:33;;;;;;;6.80;2.67;;;;;;;26.23;44.29;101244.78;5098045;28;20059;-62
2022/05/16 10:01:01;;;;;;;5.75;3.13;;;;;;;26.26;44.03;101249.94;5097553;28;20504;-63
2022/05/16 10:03:35;;;;;;;4.63;2.72;;;;;;;26.42;44.34;101260.44;5097869;28;20092;-62
2022/05/16 10:06:09;;;;;;;7.75;2.97;;;;;;;26.41;44.05;101264.06;5098038;28;20039;-63
2022/05/16 10:08:37;;;;;;;6.95;3.35;;;;;;;26.40;43.92;101273.09;5097873;28;20032;-63
2022/05/16 10:11:12;;;;;;;10.23;3.20;;;;;;;26.33;44.77;101274.50;5097817;28;20321;-62
2022/05/16 10:13:38;;;;;;;6.90;3.17;;;;;;;26.50;44.66;101270.59;5097729;28;20102;-62
2022/05/16 10:16:07;;;;;;;5.88;3.28;;;;;;;26.40;44.29;101267.72;5097621;28;20344;-62
2022/05/16 10:19:03;;;;;;;7.38;3.38;;;;;;;26.15;45.20;101273.13;5097953;28;20108;-64
2022/05/16 10:21:34;;;;;;;10.18;3.53;;;;;;;25.66;46.65;101284.63;5083983;28;20087;-64
2022/05/16 10:24:02;;;;;;;7.20;3.13;;;;;;;25.31;47.80;101295.03;5097596;28;20325;-64
2022/05/16 10:26:33;;;;;;;10.05;3.72;;;;;;;24.89;50.82;101307.66;5097103;28;20032;-64
2022/05/16 10:29:03;;;;;;;7.50;3.60;;;;;;;24.57;54.37;101335.66;5098060;28;20345;-63
2022/05/16 10:34:31;;;;;;;9.15;4.25;;;;;;;23.36;63.49;101338.63;5097418;28;20043;-64
2022/05/16 10:36:59;;;;;;;8.82;4.18;;;;;;;22.61;70.21;101360.69;5097074;28;20031;-63
2022/05/16 10:39:27;;;;;;;7.30;4.05;;;;;;;22.26;72.72;101352.81;5097502;28;20043;-62
2022/05/16 10:42:05;;;;;;;10.48;4.43;;;;;;;22.27;70.94;101354.53;5096956;28;20035;-62
2022/05/16 10:44:53;;;;;;;11.82;4.47;;;;;;;22.37;69.41;101365.56;5103462;28;20032;-62
2022/05/16 10:47:44;;;;;;;9.30;4.53;;;;;;;22.76;69.81;101363.38;5117174;28;20362;-63
2022/05/16 10:50:14;;;;;;;8.90;4.57;;;;;;;23.30;71.57;101360.34;5117456;28;20070;-63
2022/05/16 10:52:58;;;;;;;7.45;4.20;;;;;;;23.69;68.55;101360.72;5117762;28;20389;-59
2022/05/16 10:55:31;;;;;;;9.10;4.40;;;;;;;23.90;69.81;101366.56;5117487;28;20039;-66
2022/05/16 10:58:32;;;;;;;10.23;5.00;;;;;;;23.90;67.52;101362.06;5099841;28;20118;-65
2022/05/16 11:01:12;;;;;;;13.18;4.32;;;;;;;24.12;66.38;101366.09;5117127;28;20465;-65
2022/05/16 11:04:07;;;;;;;10.45;4.80;;;;;;;24.33;63.66;101366.63;5117306;28;20035;-64
2022/05/16 11:07:01;;;;;;;9.55;4.30;;;;;;;24.49;64.03;101378.94;5117476;28;20058;-64
2022/05/16 11:09:51;;;;;;;8.00;4.22;;;;;;;24.34;60.81;101373.69;5116947;28;20039;-63
2022/05/16 11:12:30;;;;;;;9.75;4.43;;;;;;;24.18;61.30;101369.28;5117127;28;20042;-64
2022/05/16 11:15:08;;;;;;;9.32;4.68;;;;;;;24.05;60.36;101379.00;5113335;28;20439;-64
2022/05/16 11:18:01;;;;;;;7.53;4.50;;;;;;;24.06;60.61;101379.88;5117063;28;20108;-66
2022/05/16 11:20:35;;;;;;;10.93;5.10;;;;;;;23.87;61.13;101374.78;5116739;28;20031;-64
2022/05/16 11:23:21;;;;;;;7.95;4.85;;;;;;;23.88;60.49;101368.50;5116863;28;20047;-66
2022/05/16 11:26:13;;;;;;;10.05;5.10;;;;;;;23.84;61.02;101370.47;5116464;28;20038;-63
2022/05/16 11:32:14;;;;;;;12.30;5.95;;;;;;;23.65;61.95;101385.88;5117117;28;20070;-64
2022/05/16 11:34:46;;;;;;;12.15;7.00;;;;;;;23.00;67.87;101390.53;5116529;28;20508;-64
2022/05/16 11:37:11;;;;;;;;;;;;;;;22.88;64.02;101385.88;5116899;28;20032;-64
2022/05/16 11:39:49;;;;;;;10.90;6.75;;;;;;;22.77;70.38;101386.47;5115954;28;19918;-65
2022/05/16 11:42:43;;;;;;;11.75;6.80;;;;;;;22.95;68.16;101381.91;5116219;28;20130;-64
2022/05/16 11:45:31;;;;;;;11.23;6.78;;;;;;;23.01;68.02;101391.41;5116724;28;20100;-63
2022/05/16 11:48:23;;;;;;;11.15;6.50;;;;;;;23.09;66.43;101391.81;5116387;28;20042;-63
2022/05/16 11:50:54;;;;;;;;;;;;;;;23.26;64.84;101405.91;5116472;28;20144;-64
2022/05/16 11:53:52;;;;;;;10.95;5.97;;;;;;;22.98;65.38;101405.78;5116682;28;19911;-65
2022/05/16 12:02:32;;;;;;;11.23;6.40;;;;;;;22.68;67.19;101412.78;5084977;28;20058;-64
2022/05/16 12:05:01;;;;;;;10.48;6.78;;;;;;;22.50;66.62;101394.19;5116405;28;20065;-64
2022/05/16 12:07:39;;;;;;;10.52;8.35;;;;;;;22.64;66.37;101424.56;5116042;28;20031;-63